createdAt,value
2018-04-12T00:02:17.539Z,27.97
2018-04-12T00:07:20.098Z,29.50
2018-04-12T00:12:22.588Z,27.23
2018-04-12T00:17:25.097Z,29.10
2018-04-12T00:22:27.573Z,28.23
2018-04-12T00:27:30.062Z,28.13
2018-04-12T00:32:32.556Z,29.27
2018-04-12T00:37:35.186Z,29.00
2018-04-12T00:42:37.697Z,28.43
2018-04-12T00:47:40.182Z,28.67
2018-04-12T00:52:42.769Z,28.57
2018-04-12T00:57:45.469Z,29.83
2018-04-12T01:02:48.087Z,28.30
2018-04-12T01:07:51.309Z,28.97
2018-04-12T01:12:53.855Z,30.10
2018-04-12T01:17:56.342Z,28.63
2018-04-12T01:22:58.868Z,29.60
2018-04-12T01:28:01.468Z,30.93
2018-04-12T01:33:22.834Z,29.20
2018-04-12T01:38:25.393Z,31.20
2018-04-12T01:43:27.867Z,30.90
2018-04-12T01:48:30.390Z,30.43
2018-04-12T01:53:32.887Z,30.50
2018-04-12T01:58:35.354Z,30.40
2018-04-12T02:03:37.889Z,31.07
2018-04-12T02:08:40.359Z,31.73
2018-04-12T02:13:42.922Z,32.07
2018-04-12T02:18:45.446Z,31.57
2018-04-12T02:23:50.139Z,33.23
2018-04-12T02:28:52.787Z,31.83
2018-04-12T02:33:55.263Z,32.67
2018-04-12T02:38:57.757Z,32.13
2018-04-12T02:44:00.233Z,31.77
2018-04-12T02:49:02.709Z,33.67
2018-04-12T02:54:05.200Z,32.03
2018-04-12T02:59:07.667Z,31.83
2018-04-12T03:04:10.163Z,32.53
2018-04-12T03:09:13.517Z,32.87
2018-04-12T03:14:16.230Z,33.03
2018-04-12T03:19:19.323Z,33.10
2018-04-12T03:24:21.882Z,33.87
2018-04-12T03:29:24.380Z,33.77
2018-04-12T03:34:26.867Z,33.80
2018-04-12T03:39:29.371Z,34.17
2018-04-12T03:44:31.872Z,33.80
2018-04-12T03:49:34.463Z,33.23
2018-04-12T03:54:37.127Z,34.70
2018-04-12T03:59:39.656Z,35.43
2018-04-12T04:04:42.301Z,33.20
2018-04-12T04:09:44.985Z,34.97
2018-04-12T04:20:34.724Z,35.20
2018-04-12T04:25:37.255Z,34.73
2018-04-12T04:30:39.712Z,36.00
2018-04-12T04:35:42.311Z,33.10
2018-04-12T04:40:44.920Z,34.50
2018-04-12T04:45:47.548Z,34.27
2018-04-12T04:50:50.092Z,33.33
2018-04-12T04:55:52.641Z,34.47
2018-04-12T05:00:55.102Z,33.50
2018-04-12T05:05:57.864Z,30.73
2018-04-12T05:11:00.337Z,32.53
2018-04-12T05:16:02.837Z,31.87
2018-04-12T05:21:05.316Z,31.20
2018-04-12T05:26:07.852Z,30.23
2018-04-12T05:31:10.349Z,27.07
2018-04-12T05:36:12.934Z,26.17
2018-04-12T05:41:16.496Z,25.43
2018-04-12T05:46:19.027Z,23.93
2018-04-12T05:51:21.566Z,22.47
2018-04-12T05:56:24.158Z,22.57
2018-04-12T06:01:26.637Z,21.80
2018-04-12T06:06:29.091Z,21.80
2018-04-12T06:11:31.632Z,20.73
2018-04-12T06:16:34.127Z,20.60
2018-04-12T06:21:36.597Z,22.90
2018-04-12T06:26:39.069Z,23.90
2018-04-12T06:31:41.779Z,23.77
2018-04-12T06:36:45.479Z,24.40
2018-04-12T06:41:48.054Z,24.30
2018-04-12T06:46:50.670Z,23.67
2018-04-12T06:51:54.189Z,23.60
2018-04-12T06:56:57.000Z,21.83
2018-04-12T07:01:59.658Z,22.90
2018-04-12T07:07:02.131Z,22.70
2018-04-12T07:12:04.632Z,21.80
2018-04-12T07:17:07.106Z,22.17
2018-04-12T07:22:09.553Z,22.43
2018-04-12T07:27:12.059Z,21.90
2018-04-12T07:32:14.567Z,20.67
2018-04-12T07:37:17.095Z,21.43
2018-04-12T07:42:19.630Z,19.43
2018-04-12T07:47:22.282Z,18.93
2018-04-12T07:52:24.805Z,18.17
2018-04-12T07:57:27.275Z,19.03
2018-04-12T08:02:29.766Z,18.83
2018-04-12T08:07:32.281Z,18.47
2018-04-12T08:12:34.793Z,16.63
2018-04-12T08:17:38.358Z,17.20
2018-04-12T08:22:40.887Z,16.10
2018-04-12T08:27:43.460Z,16.80
2018-04-12T08:32:46.323Z,15.43
2018-04-12T08:37:48.923Z,16.10
2018-04-12T08:42:51.439Z,14.10
2018-04-12T08:47:54.041Z,15.03
2018-04-12T08:52:56.661Z,14.13
2018-04-12T08:57:59.153Z,14.73
2018-04-12T09:03:01.660Z,13.70
2018-04-12T09:08:04.138Z,14.67
2018-04-12T09:13:06.620Z,15.07
2018-04-12T09:18:09.226Z,12.77
2018-04-12T09:23:11.968Z,12.00
2018-04-12T09:28:14.753Z,11.43
2018-04-12T09:33:17.387Z,11.80
2018-04-12T09:38:19.828Z,11.37
2018-04-12T09:43:22.303Z,11.13
2018-04-12T09:48:24.751Z,10.53
2018-04-12T09:53:27.233Z,9.87
2018-04-12T09:58:30.052Z,8.60
2018-04-12T10:03:32.988Z,8.60
2018-04-12T10:08:35.473Z,8.83
2018-04-12T10:13:38.099Z,8.00
2018-04-12T10:18:40.683Z,7.80
2018-04-12T10:23:43.254Z,7.80
2018-04-12T10:28:45.798Z,7.77
2018-04-12T10:33:48.401Z,7.77
2018-04-12T10:38:50.992Z,7.77
2018-04-12T10:43:53.549Z,7.97
2018-04-12T10:48:56.121Z,7.73
2018-04-12T10:53:58.592Z,6.87
2018-04-12T10:59:01.073Z,7.50
2018-04-12T11:04:03.568Z,6.80
2018-04-12T11:09:06.044Z,6.97
2018-04-12T11:14:08.555Z,6.83
2018-04-12T11:19:11.245Z,5.50
2018-04-12T11:24:13.890Z,5.70
2018-04-12T11:29:17.476Z,5.57
2018-04-12T11:34:21.336Z,4.67
2018-04-12T11:39:24.051Z,4.73
2018-04-12T11:44:26.648Z,4.70
2018-04-12T11:49:29.119Z,4.80
2018-04-12T11:54:31.598Z,4.37
2018-04-12T11:59:34.241Z,5.00
2018-04-12T12:04:36.747Z,4.60
2018-04-12T12:09:39.260Z,4.37
2018-04-12T12:14:41.707Z,4.73
2018-04-12T12:19:44.511Z,4.90
2018-04-12T12:24:47.315Z,4.30
2018-04-12T12:29:49.838Z,4.23
2018-04-12T12:34:52.352Z,4.10
2018-04-12T12:39:54.864Z,4.33
2018-04-12T12:44:57.339Z,4.63
2018-04-12T12:49:59.830Z,4.20
2018-04-12T12:55:02.465Z,4.37
2018-04-12T13:00:04.944Z,4.40
2018-04-12T13:05:07.852Z,4.03
2018-04-12T13:10:10.335Z,3.80
2018-04-12T13:15:12.815Z,4.50
2018-04-12T13:20:15.328Z,4.10
2018-04-12T13:25:17.899Z,3.70
2018-04-12T13:30:20.413Z,4.17
2018-04-12T13:35:22.916Z,3.27
2018-04-12T13:40:25.419Z,4.00
2018-04-12T13:45:27.896Z,3.60
2018-04-12T13:50:30.372Z,3.73
2018-04-12T13:55:32.830Z,3.33
2018-04-12T14:00:35.298Z,4.00
2018-04-12T14:05:37.789Z,4.00
2018-04-12T14:10:40.267Z,3.60
2018-04-12T14:15:42.826Z,3.83
2018-04-12T14:20:45.397Z,3.57
2018-04-12T14:25:47.968Z,4.03
2018-04-12T14:30:50.499Z,4.63
2018-04-12T14:35:53.013Z,4.17
2018-04-12T14:40:55.498Z,4.03
2018-04-12T14:45:58.808Z,4.60
2018-04-12T14:51:01.322Z,4.40
2018-04-12T14:56:03.804Z,4.20
2018-04-12T15:01:06.284Z,3.93
2018-04-12T15:06:10.848Z,4.47
2018-04-12T15:11:13.441Z,3.97
2018-04-12T15:16:16.029Z,4.00
2018-04-12T15:21:18.540Z,4.50
2018-04-12T15:26:21.027Z,4.50
2018-04-12T15:31:23.564Z,4.50
2018-04-12T15:36:26.028Z,4.00
2018-04-12T15:41:28.490Z,3.87
2018-04-12T15:46:30.959Z,4.30
2018-04-12T15:51:33.422Z,4.10
2018-04-12T15:56:35.946Z,4.50
2018-04-12T16:01:38.431Z,4.50
2018-04-12T16:06:40.889Z,3.80
2018-04-12T16:11:43.418Z,3.50
2018-04-12T16:16:45.941Z,3.83
2018-04-12T16:21:48.533Z,4.07
2018-04-12T16:26:51.041Z,4.10
2018-04-12T16:31:53.522Z,4.10
2018-04-12T16:36:55.985Z,4.20
2018-04-12T16:41:58.477Z,4.10
2018-04-12T16:47:00.968Z,4.50
2018-04-12T16:52:03.442Z,4.00
2018-04-12T16:57:05.910Z,5.37
2018-04-12T17:02:08.417Z,6.13
2018-04-12T17:07:10.889Z,6.73
2018-04-12T17:12:13.553Z,7.50
2018-04-12T17:17:16.101Z,7.23
2018-04-12T17:22:18.954Z,7.80
2018-04-12T17:27:21.431Z,8.03
2018-04-12T17:32:23.938Z,9.00
2018-04-12T17:37:29.166Z,9.63
2018-04-12T17:42:31.832Z,9.13
2018-04-12T17:47:34.320Z,10.53
2018-04-12T17:52:36.807Z,10.70
2018-04-12T17:57:39.312Z,10.17
2018-04-12T18:02:41.800Z,10.83
2018-04-12T18:07:44.375Z,11.07
2018-04-12T18:12:46.924Z,11.00
2018-04-12T18:17:49.446Z,12.13
2018-04-12T18:22:51.935Z,12.07
2018-04-12T18:27:54.413Z,12.63
2018-04-12T18:32:56.882Z,13.97
2018-04-12T18:37:59.373Z,13.23
2018-04-12T18:43:01.885Z,13.97
2018-04-12T18:48:04.388Z,14.93
2018-04-12T18:53:06.874Z,14.90
2018-04-12T18:58:09.382Z,14.90
2018-04-12T19:03:11.872Z,15.87
2018-04-12T19:08:14.720Z,17.17
2018-04-12T19:13:17.277Z,15.97
2018-04-12T19:18:19.998Z,16.57
2018-04-12T19:23:22.486Z,16.13
2018-04-12T19:28:26.240Z,16.97
2018-04-12T19:33:28.786Z,17.10
2018-04-12T19:38:31.299Z,17.73
2018-04-12T19:43:33.863Z,18.73
2018-04-12T19:48:36.313Z,18.13
2018-04-12T19:53:38.809Z,16.97
2018-04-12T19:58:41.283Z,18.93
2018-04-12T20:03:43.860Z,18.47
2018-04-12T20:08:46.368Z,18.60
2018-04-12T20:13:48.917Z,19.33
2018-04-12T20:18:51.424Z,19.90
2018-04-12T20:23:53.921Z,21.10
2018-04-12T20:28:56.393Z,20.27
2018-04-12T20:33:58.950Z,21.33
2018-04-12T20:39:01.414Z,21.00
2018-04-12T20:44:03.903Z,20.67
2018-04-12T20:49:06.399Z,22.07
2018-04-12T20:54:08.868Z,23.57
2018-04-12T20:59:11.353Z,23.70
2018-04-12T21:04:14.515Z,23.77
2018-04-12T21:09:17.130Z,21.93
2018-04-12T21:14:19.675Z,24.00
2018-04-12T21:19:22.208Z,24.10
2018-04-12T21:24:24.691Z,23.50
2018-04-12T21:29:27.174Z,25.03
2018-04-12T21:34:29.662Z,24.07
2018-04-12T21:39:32.238Z,24.50
2018-04-12T21:44:34.708Z,25.70
2018-04-12T21:49:37.222Z,26.17
2018-04-12T21:54:39.720Z,25.27
2018-04-12T21:59:42.211Z,27.50
2018-04-12T22:04:44.735Z,24.73
2018-04-12T22:09:47.318Z,25.90
2018-04-12T22:14:49.854Z,26.33
2018-04-12T22:19:52.391Z,26.57
2018-04-12T22:24:54.932Z,26.87
2018-04-12T22:29:57.396Z,25.57
2018-04-12T22:34:59.855Z,26.13
2018-04-12T22:40:02.403Z,25.60
2018-04-12T22:45:04.868Z,27.50
2018-04-12T22:50:07.347Z,26.07
2018-04-12T22:55:10.261Z,25.67
2018-04-12T23:00:13.710Z,25.67
2018-04-12T23:05:16.286Z,25.70
2018-04-12T23:10:18.811Z,25.23
2018-04-12T23:15:21.523Z,25.13
2018-04-12T23:20:24.035Z,25.87
2018-04-12T23:25:26.520Z,25.50
2018-04-12T23:30:29.020Z,25.73
2018-04-12T23:35:31.513Z,24.87
2018-04-12T23:40:34.035Z,25.17
2018-04-12T23:45:36.532Z,25.60
2018-04-12T23:50:39.006Z,25.07
2018-04-12T23:55:41.501Z,24.80
